createdAt,value
2023-01-29T00:01:54.390Z,2.11
2023-01-29T00:04:20.972Z,2.11
2023-01-29T00:06:47.539Z,2.10
2023-01-29T00:09:14.439Z,2.09
2023-01-29T00:11:41.134Z,2.10
2023-01-29T00:14:07.972Z,2.08
2023-01-29T00:16:34.442Z,2.08
2023-01-29T00:19:02.546Z,2.07
2023-01-29T00:21:31.058Z,2.07
2023-01-29T00:23:58.862Z,2.06
2023-01-29T00:26:26.003Z,2.05
2023-01-29T00:28:52.507Z,2.05
2023-01-29T00:31:21.817Z,2.05
2023-01-29T00:33:48.965Z,2.05
2023-01-29T00:36:17.748Z,2.04
2023-01-29T00:38:44.807Z,2.04
2023-01-29T00:41:34.459Z,2.02
2023-01-29T00:44:20.223Z,2.03
2023-01-29T00:46:46.739Z,2.01
2023-01-29T00:49:13.251Z,2.00
2023-01-29T00:51:40.084Z,2.01
2023-01-29T00:54:07.037Z,2.00
2023-01-29T00:56:37.412Z,2.00
2023-01-29T00:59:04.585Z,2.00
2023-01-29T01:01:49.355Z,1.99
2023-01-29T01:04:15.874Z,1.98
2023-01-29T01:06:43.126Z,1.99
2023-01-29T01:09:43.613Z,1.98
2023-01-29T01:12:10.068Z,1.99
2023-01-29T01:14:36.497Z,2.00
2023-01-29T01:17:02.978Z,1.99
2023-01-29T01:19:29.512Z,1.99
2023-01-29T01:21:55.932Z,1.99
2023-01-29T01:24:23.392Z,2.00
2023-01-29T01:26:49.938Z,1.99
2023-01-29T01:29:16.413Z,2.01
2023-01-29T01:31:42.852Z,2.01
2023-01-29T01:34:09.310Z,2.02
2023-01-29T01:36:35.758Z,2.02
2023-01-29T01:39:02.225Z,2.01
2023-01-29T01:41:30.612Z,2.02
2023-01-29T01:44:00.131Z,2.01
2023-01-29T01:46:31.601Z,2.02
2023-01-29T01:49:05.007Z,2.03
2023-01-29T01:51:34.009Z,2.03
2023-01-29T01:54:05.644Z,2.04
2023-01-29T01:56:40.612Z,2.03
2023-01-29T01:59:14.570Z,2.03
2023-01-29T02:01:47.887Z,2.03
2023-01-29T02:04:36.912Z,2.03
2023-01-29T02:07:25.658Z,2.04
2023-01-29T02:09:56.672Z,2.04
2023-01-29T02:12:23.342Z,2.04
2023-01-29T02:14:51.776Z,2.03
2023-01-29T02:17:19.997Z,2.05
2023-01-29T02:20:19.748Z,2.06
2023-01-29T02:22:56.027Z,2.05
2023-01-29T02:25:58.004Z,2.06
2023-01-29T02:28:32.722Z,2.05
2023-01-29T02:31:09.528Z,2.06
2023-01-29T02:33:59.536Z,2.08
2023-01-29T02:36:45.435Z,2.08
2023-01-29T02:39:17.373Z,2.08
2023-01-29T02:42:25.215Z,2.11
2023-01-29T02:45:08.090Z,2.09
2023-01-29T02:47:42.588Z,2.11
2023-01-29T02:50:18.579Z,2.10
2023-01-29T02:53:03.268Z,2.10
2023-01-29T02:55:45.530Z,2.09
2023-01-29T02:58:19.708Z,2.11
2023-01-29T03:00:48.001Z,2.11
2023-01-29T03:03:19.503Z,2.11
2023-01-29T03:05:57.080Z,2.09
2023-01-29T03:08:50.069Z,2.11
2023-01-29T03:11:17.779Z,2.12
2023-01-29T03:13:57.965Z,2.11
2023-01-29T03:16:37.133Z,2.12
2023-01-29T03:19:18.907Z,2.09
2023-01-29T03:21:51.219Z,2.10
2023-01-29T03:25:00.134Z,2.09
2023-01-29T03:27:55.286Z,2.09
2023-01-29T03:30:44.348Z,2.08
2023-01-29T03:33:13.192Z,2.08
2023-01-29T03:35:51.976Z,2.07
2023-01-29T03:38:19.686Z,2.07
2023-01-29T03:40:53.048Z,2.07
2023-01-29T03:43:26.557Z,2.07
2023-01-29T03:45:58.724Z,2.05
2023-01-29T03:48:35.083Z,2.06
2023-01-29T03:51:35.462Z,2.06
2023-01-29T03:54:20.148Z,2.04
2023-01-29T03:57:02.894Z,2.05
2023-01-29T03:59:45.042Z,2.04
2023-01-29T04:02:29.963Z,2.04
2023-01-29T04:04:59.808Z,2.04
2023-01-29T04:07:29.730Z,2.03
2023-01-29T04:10:01.603Z,2.03
2023-01-29T04:12:38.532Z,2.04
2023-01-29T04:15:09.998Z,2.03
2023-01-29T04:17:41.592Z,2.01
2023-01-29T04:20:09.497Z,2.00
2023-01-29T04:22:39.426Z,2.02
2023-01-29T04:25:16.086Z,2.00
2023-01-29T04:28:23.352Z,2.01
2023-01-29T04:31:05.439Z,2.01
2023-01-29T04:33:40.016Z,2.00
2023-01-29T04:36:38.200Z,2.00
2023-01-29T04:39:54.175Z,1.99
2023-01-29T04:42:33.239Z,1.98
2023-01-29T04:45:11.122Z,1.96
2023-01-29T04:48:07.609Z,1.96
2023-01-29T04:50:55.945Z,1.97
2023-01-29T04:53:36.238Z,1.97
2023-01-29T04:56:48.268Z,1.95
2023-01-29T04:59:21.150Z,1.92
2023-01-29T05:01:48.817Z,1.91
2023-01-29T05:04:19.681Z,1.92
2023-01-29T05:06:49.157Z,1.92
2023-01-29T05:09:17.764Z,1.90
2023-01-29T05:11:47.485Z,1.90
2023-01-29T05:14:17.130Z,1.89
2023-01-29T05:16:47.597Z,1.88
2023-01-29T05:19:16.127Z,1.86
2023-01-29T05:21:46.255Z,1.86
2023-01-29T05:24:18.390Z,1.85
2023-01-29T05:27:06.715Z,1.86
2023-01-29T05:29:33.212Z,1.86
2023-01-29T05:31:59.949Z,1.84
2023-01-29T05:34:26.587Z,1.84
2023-01-29T05:36:53.516Z,1.85
2023-01-29T05:39:20.001Z,1.84
2023-01-29T05:41:46.445Z,1.84
2023-01-29T05:44:13.228Z,1.83
2023-01-29T05:46:39.819Z,1.82
2023-01-29T05:49:06.750Z,1.84
2023-01-29T05:51:33.265Z,1.83
2023-01-29T05:53:59.691Z,1.83
2023-01-29T05:56:26.218Z,1.82
2023-01-29T05:58:52.754Z,1.83
2023-01-29T06:01:22.421Z,1.82
2023-01-29T06:03:48.815Z,1.83
2023-01-29T06:06:16.346Z,1.82
2023-01-29T06:08:42.937Z,1.83
2023-01-29T06:11:11.759Z,1.82
2023-01-29T06:13:38.892Z,1.81
2023-01-29T06:16:10.311Z,1.81
2023-01-29T06:18:37.536Z,1.81
2023-01-29T06:21:06.059Z,1.81
2023-01-29T06:23:33.607Z,1.82
2023-01-29T06:26:05.685Z,1.81
2023-01-29T06:28:32.456Z,1.81
2023-01-29T06:31:11.543Z,1.82
2023-01-29T06:33:47.553Z,1.82
2023-01-29T06:36:14.013Z,1.82
2023-01-29T06:38:40.436Z,1.84
2023-01-29T06:41:12.066Z,1.85
2023-01-29T06:43:39.672Z,1.85
2023-01-29T06:46:08.201Z,1.85
2023-01-29T06:48:35.214Z,1.86
2023-01-29T06:51:07.020Z,1.87
2023-01-29T06:53:34.492Z,1.86
2023-01-29T06:56:01.141Z,1.86
2023-01-29T06:58:27.634Z,1.87
2023-01-29T07:00:54.235Z,1.87
2023-01-29T07:03:20.754Z,1.87
2023-01-29T07:05:51.989Z,1.88
2023-01-29T07:08:18.899Z,1.87
2023-01-29T07:10:45.485Z,1.88
2023-01-29T07:13:11.896Z,1.87
2023-01-29T07:15:38.330Z,1.88
2023-01-29T07:18:12.048Z,1.87
2023-01-29T07:20:40.636Z,1.88
2023-01-29T07:23:10.834Z,1.87
2023-01-29T07:25:37.739Z,1.86
2023-01-29T07:28:04.822Z,1.86
2023-01-29T07:30:31.476Z,1.86
2023-01-29T07:33:07.523Z,1.86
2023-01-29T07:35:42.350Z,1.87
2023-01-29T07:38:10.348Z,1.89
2023-01-29T07:40:37.081Z,1.89
2023-01-29T07:43:06.583Z,1.88
2023-01-29T07:45:35.122Z,1.89
2023-01-29T07:48:01.565Z,1.90
2023-01-29T07:50:28.051Z,1.91
2023-01-29T07:52:54.984Z,1.91
2023-01-29T07:59:16.471Z,1.95
2023-01-29T08:01:42.963Z,1.95
2023-01-29T08:04:09.477Z,1.97
2023-01-29T08:06:35.958Z,1.97
2023-01-29T08:09:02.554Z,1.98
2023-01-29T08:11:29.060Z,1.99
2023-01-29T08:13:56.659Z,2.01
2023-01-29T08:16:23.405Z,2.01
2023-01-29T08:18:49.862Z,2.04
2023-01-29T08:21:16.466Z,2.06
2023-01-29T08:23:42.896Z,2.08
2023-01-29T08:26:09.448Z,2.11
2023-01-29T08:28:38.602Z,2.13
2023-01-29T08:31:12.851Z,2.14
2023-01-29T08:33:39.611Z,2.16
2023-01-29T08:36:07.380Z,2.16
2023-01-29T08:38:33.964Z,2.17
2023-01-29T08:41:00.442Z,2.18
2023-01-29T08:43:26.929Z,2.20
2023-01-29T08:45:53.406Z,2.23
2023-01-29T08:48:20.059Z,2.25
2023-01-29T08:50:46.467Z,2.29
2023-01-29T08:53:12.944Z,2.31
2023-01-29T08:55:40.539Z,2.33
2023-01-29T08:58:09.043Z,2.35
2023-01-29T09:00:36.037Z,2.36
2023-01-29T09:03:17.553Z,2.39
2023-01-29T09:05:44.049Z,2.40
2023-01-29T09:08:10.637Z,2.43
2023-01-29T09:10:37.239Z,2.44
2023-01-29T09:13:04.141Z,2.46
2023-01-29T09:15:30.969Z,2.49
2023-01-29T09:17:57.486Z,2.50
2023-01-29T09:20:24.516Z,2.52
2023-01-29T09:22:59.084Z,2.55
2023-01-29T09:25:25.631Z,2.58
2023-01-29T09:27:54.232Z,2.60
2023-01-29T09:30:20.872Z,2.63
2023-01-29T09:32:53.586Z,2.66
2023-01-29T09:35:23.625Z,2.69
2023-01-29T09:37:51.332Z,2.71
2023-01-29T09:40:35.735Z,2.73
2023-01-29T09:43:07.159Z,2.76
2023-01-29T09:45:39.525Z,2.78
2023-01-29T09:48:13.200Z,2.81
2023-01-29T09:50:44.133Z,2.84
2023-01-29T09:53:39.232Z,2.86
2023-01-29T09:56:13.229Z,2.89
2023-01-29T09:58:42.381Z,2.93
2023-01-29T10:01:29.329Z,2.94
2023-01-29T10:04:21.129Z,2.97
2023-01-29T10:07:11.220Z,2.99
2023-01-29T10:09:43.602Z,3.03
2023-01-29T10:12:22.135Z,3.01
2023-01-29T10:15:04.813Z,3.03
2023-01-29T10:18:00.246Z,3.03
2023-01-29T10:21:01.823Z,3.06
2023-01-29T10:23:38.575Z,3.07
2023-01-29T10:26:05.173Z,3.04
2023-01-29T10:28:46.467Z,3.05
2023-01-29T10:31:28.560Z,3.04
2023-01-29T10:34:03.382Z,3.03
2023-01-29T10:36:42.885Z,3.03
2023-01-29T10:39:18.669Z,3.03
2023-01-29T10:41:45.096Z,3.03
2023-01-29T10:44:20.723Z,3.04
2023-01-29T10:47:13.509Z,3.10
2023-01-29T10:50:06.547Z,3.15
2023-01-29T10:52:35.926Z,3.19
2023-01-29T10:55:21.156Z,3.22
2023-01-29T10:58:08.924Z,3.24
2023-01-29T11:00:41.356Z,3.28
2023-01-29T11:03:28.028Z,3.33
2023-01-29T11:05:58.184Z,3.35
2023-01-29T11:09:00.099Z,3.37
2023-01-29T11:11:46.181Z,3.39
2023-01-29T11:14:22.872Z,3.43
2023-01-29T11:16:49.659Z,3.43
2023-01-29T11:19:16.668Z,3.45
2023-01-29T11:21:56.590Z,3.46
2023-01-29T11:24:23.719Z,3.44
2023-01-29T11:26:51.859Z,3.44
2023-01-29T11:29:30.421Z,3.45
2023-01-29T11:31:58.715Z,3.45
2023-01-29T11:34:27.749Z,3.44
2023-01-29T11:37:02.888Z,3.44
2023-01-29T11:39:32.192Z,3.45
2023-01-29T11:42:04.428Z,3.45
2023-01-29T11:44:40.766Z,3.47
2023-01-29T11:47:16.453Z,3.47
2023-01-29T11:49:49.571Z,3.45
2023-01-29T11:52:20.554Z,3.46
2023-01-29T11:54:51.983Z,3.46
2023-01-29T11:57:27.721Z,3.47
2023-01-29T11:59:56.706Z,3.47
2023-01-29T12:02:31.866Z,3.46
2023-01-29T12:05:04.711Z,3.45
2023-01-29T12:07:32.748Z,3.45
2023-01-29T12:10:00.198Z,3.44
2023-01-29T12:12:32.601Z,3.45
2023-01-29T12:15:21.354Z,3.45
2023-01-29T12:17:56.298Z,3.45
2023-01-29T12:20:33.394Z,3.46
2023-01-29T12:23:03.489Z,3.45
2023-01-29T12:26:16.112Z,3.44
2023-01-29T12:29:13.430Z,3.45
2023-01-29T12:31:50.429Z,3.47
2023-01-29T12:34:32.502Z,3.48
2023-01-29T12:37:11.367Z,3.49
2023-01-29T12:39:37.858Z,3.51
2023-01-29T12:42:24.767Z,3.52
2023-01-29T12:45:01.414Z,3.51
2023-01-29T12:47:27.808Z,3.53
2023-01-29T12:50:00.560Z,3.52
2023-01-29T12:52:39.771Z,3.50
2023-01-29T12:55:19.568Z,3.51
2023-01-29T12:57:53.837Z,3.51
2023-01-29T13:00:27.086Z,3.51
2023-01-29T13:03:21.506Z,3.52
2023-01-29T13:05:52.448Z,3.52
2023-01-29T13:08:43.292Z,3.54
2023-01-29T13:11:26.649Z,3.53
2023-01-29T13:13:59.353Z,3.53
2023-01-29T13:16:45.230Z,3.52
2023-01-29T13:19:24.221Z,3.55
2023-01-29T13:21:53.054Z,3.56
2023-01-29T13:24:25.619Z,3.58
2023-01-29T13:26:52.209Z,3.61
2023-01-29T13:29:27.795Z,3.67
2023-01-29T13:31:56.679Z,3.74
2023-01-29T13:34:28.509Z,3.79
2023-01-29T13:37:04.256Z,3.82
2023-01-29T13:39:34.145Z,3.83
2023-01-29T13:42:02.854Z,3.84
2023-01-29T13:44:36.603Z,3.87
2023-01-29T13:47:07.231Z,3.90
2023-01-29T13:49:53.058Z,3.92
2023-01-29T13:53:02.250Z,3.92
2023-01-29T13:55:37.722Z,3.92
2023-01-29T13:58:15.806Z,3.92
2023-01-29T14:00:42.139Z,3.97
2023-01-29T14:03:08.850Z,3.98
2023-01-29T14:05:40.932Z,4.01
2023-01-29T14:08:14.648Z,4.01
2023-01-29T14:10:43.217Z,4.03
2023-01-29T14:13:15.705Z,4.03
2023-01-29T14:15:42.348Z,4.02
2023-01-29T14:18:08.723Z,4.02
2023-01-29T14:20:46.071Z,4.04
2023-01-29T14:23:40.407Z,4.05
2023-01-29T14:26:30.208Z,4.09
2023-01-29T14:29:07.678Z,4.08
2023-01-29T14:31:52.178Z,4.07
2023-01-29T14:34:30.988Z,4.09
2023-01-29T14:37:21.993Z,4.12
2023-01-29T14:39:55.709Z,4.14
2023-01-29T14:42:37.591Z,4.13
2023-01-29T14:45:22.038Z,4.12
2023-01-29T14:47:48.484Z,4.12
2023-01-29T14:50:33.267Z,4.12
2023-01-29T14:53:15.475Z,4.11
2023-01-29T14:56:05.447Z,4.10
2023-01-29T14:58:42.758Z,4.09
2023-01-29T15:01:36.224Z,4.06
2023-01-29T15:04:12.984Z,4.06
2023-01-29T15:06:49.791Z,4.07
2023-01-29T15:09:37.032Z,4.07
2023-01-29T15:12:44.194Z,4.08
2023-01-29T15:15:35.372Z,4.10
2023-01-29T15:18:29.116Z,4.11
2023-01-29T15:21:04.901Z,4.13
2023-01-29T15:23:34.224Z,4.13
2023-01-29T15:26:04.376Z,4.11
2023-01-29T15:28:33.123Z,4.09
2023-01-29T15:31:02.418Z,4.07
2023-01-29T15:33:29.195Z,4.07
2023-01-29T15:36:08.946Z,4.04
2023-01-29T15:38:36.130Z,4.04
2023-01-29T15:41:18.536Z,4.01
2023-01-29T15:43:50.590Z,3.99
2023-01-29T15:46:25.576Z,3.97
2023-01-29T15:48:55.545Z,3.98
2023-01-29T15:51:25.159Z,3.97
2023-01-29T15:54:04.450Z,3.95
2023-01-29T15:56:52.309Z,3.94
2023-01-29T15:59:26.041Z,3.93
2023-01-29T16:01:53.831Z,3.91
2023-01-29T16:04:30.908Z,3.90
2023-01-29T16:06:58.967Z,3.89
2023-01-29T16:09:27.128Z,3.87
2023-01-29T16:11:57.738Z,3.85
2023-01-29T16:14:25.744Z,3.83
2023-01-29T16:16:52.893Z,3.82
2023-01-29T16:19:25.247Z,3.78
2023-01-29T16:21:56.499Z,3.74
2023-01-29T16:24:24.930Z,3.71
2023-01-29T16:26:58.372Z,3.69
2023-01-29T16:29:33.370Z,3.66
2023-01-29T16:32:02.579Z,3.63
2023-01-29T16:34:36.459Z,3.63
2023-01-29T16:37:06.566Z,3.62
2023-01-29T16:39:36.767Z,3.61
2023-01-29T16:42:12.325Z,3.57
2023-01-29T16:44:40.332Z,3.56
2023-01-29T16:47:13.115Z,3.54
2023-01-29T16:49:39.494Z,3.51
2023-01-29T16:52:18.039Z,3.47
2023-01-29T16:54:44.544Z,3.45
2023-01-29T16:57:18.213Z,3.45
2023-01-29T16:59:45.626Z,3.42
2023-01-29T17:02:33.330Z,3.39
2023-01-29T17:05:04.119Z,3.38
2023-01-29T17:07:32.464Z,3.34
2023-01-29T17:10:02.026Z,3.30
2023-01-29T17:12:30.422Z,3.30
2023-01-29T17:15:00.413Z,3.29
2023-01-29T17:17:35.785Z,3.27
2023-01-29T17:20:13.990Z,3.27
2023-01-29T17:22:40.509Z,3.27
2023-01-29T17:25:07.640Z,3.25
2023-01-29T17:27:34.065Z,3.25
2023-01-29T17:30:00.544Z,3.24
2023-01-29T17:32:44.333Z,3.23
2023-01-29T17:35:14.252Z,3.22
2023-01-29T17:37:41.168Z,3.21
2023-01-29T17:40:13.712Z,3.20
2023-01-29T17:42:40.943Z,3.19
2023-01-29T17:45:08.196Z,3.18
2023-01-29T17:47:34.579Z,3.19
2023-01-29T17:50:00.957Z,3.20
2023-01-29T17:52:27.381Z,3.19
2023-01-29T17:54:53.753Z,3.20
2023-01-29T17:57:20.156Z,3.19
2023-01-29T17:59:46.843Z,3.19
2023-01-29T18:02:29.179Z,3.21
2023-01-29T18:04:56.223Z,3.20
2023-01-29T18:07:22.791Z,3.21
2023-01-29T18:09:49.187Z,3.22
2023-01-29T18:12:15.633Z,3.22
2023-01-29T18:14:42.096Z,3.24
2023-01-29T18:17:08.486Z,3.25
2023-01-29T18:19:34.896Z,3.25
2023-01-29T18:22:01.310Z,3.24
2023-01-29T18:24:28.007Z,3.26
2023-01-29T18:26:54.461Z,3.27
2023-01-29T18:29:20.872Z,3.29
2023-01-29T18:31:50.548Z,3.29
2023-01-29T18:34:17.234Z,3.29
2023-01-29T18:36:46.937Z,3.30
2023-01-29T18:39:14.684Z,3.31
2023-01-29T18:41:41.062Z,3.30
2023-01-29T18:44:07.572Z,3.33
2023-01-29T18:46:34.012Z,3.34
2023-01-29T18:49:00.494Z,3.34
2023-01-29T18:51:26.912Z,3.32
2023-01-29T18:53:53.358Z,3.34
2023-01-29T18:56:20.293Z,3.35
2023-01-29T18:58:52.106Z,3.34
2023-01-29T19:01:19.738Z,3.36
2023-01-29T19:03:46.287Z,3.35
2023-01-29T19:06:13.214Z,3.36
2023-01-29T19:08:40.895Z,3.36
2023-01-29T19:11:08.923Z,3.35
2023-01-29T19:13:36.627Z,3.38
2023-01-29T19:16:09.205Z,3.37
2023-01-29T19:18:36.080Z,3.37
2023-01-29T19:21:10.849Z,3.37
2023-01-29T19:23:37.514Z,3.38
2023-01-29T19:26:04.249Z,3.37
2023-01-29T19:28:30.749Z,3.37
2023-01-29T19:30:58.040Z,3.38
2023-01-29T19:33:25.212Z,3.38
2023-01-29T19:35:51.693Z,3.40
2023-01-29T19:38:21.218Z,3.39
2023-01-29T19:40:48.384Z,3.40
2023-01-29T19:43:18.201Z,3.40
2023-01-29T19:45:50.907Z,3.42
2023-01-29T19:48:21.249Z,3.41
2023-01-29T19:50:55.176Z,3.42
2023-01-29T19:53:22.836Z,3.43
2023-01-29T19:55:57.751Z,3.44
2023-01-29T19:58:25.246Z,3.44
2023-01-29T20:00:56.393Z,3.45
2023-01-29T20:03:23.189Z,3.45
2023-01-29T20:05:49.671Z,3.44
2023-01-29T20:08:16.156Z,3.47
2023-01-29T20:10:47.025Z,3.47
2023-01-29T20:13:15.066Z,3.48
2023-01-29T20:15:52.098Z,3.47
2023-01-29T20:18:19.299Z,3.48
2023-01-29T20:20:47.925Z,3.49
2023-01-29T20:23:25.019Z,3.49
2023-01-29T20:26:02.356Z,3.49
2023-01-29T20:28:28.949Z,3.51
2023-01-29T20:30:56.443Z,3.49
2023-01-29T20:33:22.882Z,3.50
2023-01-29T20:36:01.028Z,3.52
2023-01-29T20:38:30.507Z,3.53
2023-01-29T20:41:05.968Z,3.53
2023-01-29T20:43:32.630Z,3.54
2023-01-29T20:45:59.702Z,3.55
2023-01-29T20:48:26.580Z,3.55
2023-01-29T20:50:54.158Z,3.57
2023-01-29T20:53:20.650Z,3.57
2023-01-29T20:55:47.320Z,3.58
2023-01-29T20:58:14.090Z,3.60
2023-01-29T21:00:41.361Z,3.61
2023-01-29T21:03:07.877Z,3.62
2023-01-29T21:05:34.280Z,3.63
2023-01-29T21:08:00.818Z,3.64
2023-01-29T21:10:27.247Z,3.66
2023-01-29T21:12:54.686Z,3.66
2023-01-29T21:15:21.433Z,3.68
2023-01-29T21:17:48.246Z,3.69
2023-01-29T21:20:15.119Z,3.70
2023-01-29T21:22:43.884Z,3.72
2023-01-29T21:25:10.878Z,3.73
2023-01-29T21:27:37.480Z,3.73
2023-01-29T21:30:04.851Z,3.77
2023-01-29T21:32:31.464Z,3.80
2023-01-29T21:34:57.895Z,3.83
2023-01-29T21:37:24.383Z,3.86
2023-01-29T21:39:50.844Z,3.86
2023-01-29T21:42:35.846Z,3.89
2023-01-29T21:45:02.230Z,3.93
2023-01-29T21:47:28.595Z,3.92
2023-01-29T21:49:55.006Z,3.95
2023-01-29T21:52:21.531Z,3.99
2023-01-29T21:54:49.200Z,4.03
2023-01-29T21:57:16.996Z,4.02
2023-01-29T21:59:43.837Z,4.05
2023-01-29T22:02:15.304Z,4.06
2023-01-29T22:04:42.392Z,4.09
2023-01-29T22:07:10.451Z,4.10
2023-01-29T22:09:37.256Z,4.08
2023-01-29T22:12:05.450Z,4.09
2023-01-29T22:14:32.071Z,4.11
2023-01-29T22:16:58.522Z,4.13
2023-01-29T22:19:29.265Z,4.15
2023-01-29T22:21:55.725Z,4.18
2023-01-29T22:24:22.563Z,4.21
2023-01-29T22:26:49.600Z,4.19
2023-01-29T22:29:19.579Z,4.21
2023-01-29T22:31:46.398Z,4.24
2023-01-29T22:34:14.181Z,4.26
2023-01-29T22:36:41.047Z,4.26
2023-01-29T22:39:08.635Z,4.26
2023-01-29T22:41:35.457Z,4.30
2023-01-29T22:44:01.990Z,4.32
2023-01-29T22:46:28.532Z,4.34
2023-01-29T22:48:54.971Z,4.36
2023-01-29T22:51:21.367Z,4.40
2023-01-29T22:53:53.119Z,4.43
2023-01-29T22:56:21.874Z,4.47
2023-01-29T22:58:52.818Z,4.50
2023-01-29T23:01:21.847Z,4.52
2023-01-29T23:03:48.622Z,4.53
2023-01-29T23:06:16.317Z,4.57
2023-01-29T23:08:42.829Z,4.61
2023-01-29T23:11:18.675Z,4.66
2023-01-29T23:13:50.820Z,4.69
2023-01-29T23:16:18.560Z,4.71
2023-01-29T23:18:45.842Z,4.71
2023-01-29T23:21:12.598Z,4.72
2023-01-29T23:23:39.128Z,4.75
2023-01-29T23:26:25.797Z,4.76
2023-01-29T23:28:52.671Z,4.78
2023-01-29T23:31:19.265Z,4.82
2023-01-29T23:33:45.689Z,4.84
2023-01-29T23:36:12.639Z,4.84
2023-01-29T23:38:39.058Z,4.85
2023-01-29T23:41:05.805Z,4.89
2023-01-29T23:43:32.705Z,5.01
2023-01-29T23:45:59.514Z,5.06
2023-01-29T23:48:26.087Z,5.07
2023-01-29T23:50:52.604Z,5.05
2023-01-29T23:53:19.103Z,5.02
2023-01-29T23:55:59.003Z,5.02
2023-01-29T23:58:26.228Z,5.04
